»·PEaware :: SKW5221 KPSP-KLAS

SKW5221 :: KPSP-KLAS

FLIGHT INFORMATION

Flight Status: Arrived
Operator:
SkyWest Airlines
More flights by this operator :: More flights under this callsign
Pilot: Chris O. (30060)
Aircraft: EMBRAER EMB-170/175
(E170)
More flights by this aircraft type
Origin: KPSP Palm Springs Intl
United States
Destination: KLAS Harry Reid Intl
United States
More flights between these airports :: More routes between these airports
Route: CATH1 PSP TNP RNDRZ2
File this flight plan on PilotEdge
Remarks: RMK / SIMBRIEF
Altitude:
(Current/Filed)
23,000ft
Speed:
(Current/Filed)
416kts
Departed: 05-Jun-22 07:29 PM
Arrived: 05-Jun-22 08:14 PM
Distance/Time
Traveled:
151nm/0:45
Distance/Time
To Go:
Arrived

Flight Plot

Page will automatically refresh every two minutes.

Flight plan parsing failed; only flown route is shown


Map Options




Map Legend


Flown Route
Filed Route
Departure Airport
Arrival Airport
Navaid (VOR, NDB)
Fix

Horizontal Profiles

Position Reports

Time Latitude Longitude Heading Altitude Ground
Speed
05-Jun-22 19:14 33.821163 -116.506625 270 410ft 0kts
05-Jun-22 19:15 33.821163 -116.506625 270 410ft 0kts
05-Jun-22 19:16 33.821163 -116.506625 270 410ft 0kts
05-Jun-22 19:17 33.821163 -116.506625 270 410ft 0kts
05-Jun-22 19:18 33.821163 -116.506625 270 410ft 0kts
05-Jun-22 19:18 33.821163 -116.506625 270 410ft 0kts
05-Jun-22 19:19 33.821163 -116.506625 270 410ft 0kts
05-Jun-22 19:21 33.821163 -116.506596 270 410ft 4kts
05-Jun-22 19:22 33.821357 -116.505808 200 410ft 1kts
05-Jun-22 19:22 33.821506 -116.505778 180 411ft 0kts
05-Jun-22 19:23 33.821506 -116.505778 180 411ft 0kts
05-Jun-22 19:24 33.821165 -116.505716 172 410ft 11kts
05-Jun-22 19:25 33.819728 -116.501672 85 404ft 23kts
05-Jun-22 19:27 33.818504 -116.498954 85 399ft 0kts
05-Jun-22 19:27 33.819179 -116.498372 321 398ft 24kts
05-Jun-22 19:28 33.854187 -116.531319 320 1234ft 213kts
05-Jun-22 19:29 33.900327 -116.575873 319 3354ft 257kts
05-Jun-22 19:30 33.961736 -116.627131 346 6775ft 286kts
05-Jun-22 19:31 34.011292 -116.564654 77 10351ft 306kts
05-Jun-22 19:32 34.031916 -116.449234 77 13002ft 387kts
05-Jun-22 19:33 34.053104 -116.331187 78 12958ft 347kts
05-Jun-22 19:34 34.069327 -116.215765 81 13015ft 349kts
05-Jun-22 19:35 34.084876 -116.100170 82 13062ft 349kts
05-Jun-22 19:36 34.100383 -115.984136 84 13059ft 349kts
05-Jun-22 19:37 34.107817 -115.867685 85 13063ft 349kts
05-Jun-22 19:38 34.116750 -115.751261 69 13032ft 349kts
05-Jun-22 19:39 34.197486 -115.675628 42 16587ft 410kts
05-Jun-22 19:40 34.280753 -115.575785 41 20002ft 425kts
05-Jun-22 19:41 34.381418 -115.499552 20 22822ft 442kts
05-Jun-22 19:42 34.486191 -115.451716 18 22872ft 368kts
05-Jun-22 19:43 34.582541 -115.407810 18 22863ft 375kts
05-Jun-22 19:44 34.680244 -115.364281 15 22762ft 374kts
05-Jun-22 19:45 34.779787 -115.327360 3 22698ft 372kts
05-Jun-22 19:46 34.876076 -115.364847 336 21662ft 361kts
05-Jun-22 19:47 34.967369 -115.408170 336 19877ft 346kts
05-Jun-22 19:48 35.055455 -115.448682 336 18101ft 334kts
05-Jun-22 19:49 35.143947 -115.489896 336 16408ft 376kts
05-Jun-22 19:50 35.241526 -115.545097 331 14757ft 388kts
05-Jun-22 19:51 35.336474 -115.602685 336 13110ft 378kts
05-Jun-22 19:52 35.431695 -115.650997 336 12996ft 365kts
05-Jun-22 19:53 35.516390 -115.694014 331 13005ft 312kts
05-Jun-22 19:54 35.597542 -115.718059 30 13035ft 322kts
05-Jun-22 19:55 35.660148 -115.641430 46 12515ft 318kts
05-Jun-22 19:56 35.721728 -115.563297 34 12492ft 319kts
05-Jun-22 19:57 35.794846 -115.507377 30 11741ft 299kts
05-Jun-22 19:58 35.866641 -115.452991 28 11744ft 303kts
05-Jun-22 19:59 35.941646 -115.406133 25 11028ft 290kts
05-Jun-22 20:00 36.006683 -115.362213 54 11005ft 264kts
05-Jun-22 20:01 36.013864 -115.271487 92 9417ft 274kts
05-Jun-22 20:02 36.010738 -115.182405 94 9048ft 256kts
05-Jun-22 20:03 36.005886 -115.094005 96 9036ft 257kts
05-Jun-22 20:04 36.001279 -115.004921 96 8039ft 251kts
05-Jun-22 20:05 36.021114 -114.918959 71 8010ft 269kts
05-Jun-22 20:06 36.046622 -114.835548 71 8017ft 261kts
05-Jun-22 20:07 36.098314 -114.800425 312 7098ft 245kts
05-Jun-22 20:08 36.095070 -114.871336 246 5433ft 210kts
05-Jun-22 20:09 36.075512 -114.939044 259 5001ft 212kts
05-Jun-22 20:10 36.073683 -115.003804 267 4015ft 175kts
05-Jun-22 20:11 36.073699 -115.059264 267 3130ft 148kts
05-Jun-22 20:12 36.073643 -115.110456 267 2337ft 142kts
05-Jun-22 20:13 36.073675 -115.147172 277 2108ft 28kts
05-Jun-22 20:14 36.074618 -115.150436 304 2119ft 0kts
05-Jun-22 20:15 36.075313 -115.151338 327 2122ft 12kts
05-Jun-22 20:16 36.077921 -115.152857 338 2122ft 6kts
05-Jun-22 20:17 36.080484 -115.152020 13 2114ft 18kts
05-Jun-22 20:18 36.082331 -115.150609 337 2105ft 0kts
05-Jun-22 20:19 36.082331 -115.150609 337 2105ft 0kts

Navigation Log

Ident Type
Flight plan parsing failed, navigation log unavailable